createdAt,value
2022-10-08T00:01:20.897Z,73.0
2022-10-08T00:03:51.695Z,73.0
2022-10-08T00:06:22.484Z,73.0
2022-10-08T00:08:53.099Z,73.0
2022-10-08T00:11:23.699Z,73.0
2022-10-08T00:14:04.314Z,73.0
2022-10-08T00:16:34.985Z,73.0
2022-10-08T00:19:05.656Z,73.0
2022-10-08T00:24:06.416Z,73.0
2022-10-08T00:26:53.501Z,73.0
2022-10-08T00:29:14.110Z,73.0
2022-10-08T00:31:44.970Z,73.0
2022-10-08T00:34:15.717Z,73.0
2022-10-08T00:36:46.276Z,73.0
2022-10-08T00:39:16.847Z,73.0
2022-10-08T00:41:57.445Z,73.0
2022-10-08T00:44:28.058Z,73.0
2022-10-08T00:46:58.661Z,73.0
2022-10-08T00:49:29.237Z,74.0
2022-10-08T00:51:59.822Z,73.0
2022-10-08T00:54:30.410Z,74.0
2022-10-08T00:57:11.002Z,73.0
2022-10-08T00:59:41.616Z,73.0
2022-10-08T01:04:42.350Z,74.0
2022-10-08T01:07:12.940Z,74.0
2022-10-08T01:09:43.573Z,74.0
2022-10-08T01:12:24.172Z,74.0
2022-10-08T01:14:54.776Z,74.0
2022-10-08T01:17:25.361Z,74.0
2022-10-08T01:20:05.979Z,74.0
2022-10-08T01:22:36.576Z,74.0
2022-10-08T01:25:07.455Z,74.0
2022-10-08T01:27:48.056Z,74.0
2022-10-08T01:30:18.674Z,74.0
2022-10-08T01:32:49.633Z,74.0
2022-10-08T01:35:20.456Z,74.0
2022-10-08T01:37:51.033Z,74.0
2022-10-08T01:40:21.621Z,74.0
2022-10-08T01:45:32.551Z,74.0
2022-10-08T01:48:03.272Z,74.0
2022-10-08T01:50:33.861Z,74.0
2022-10-08T01:53:04.443Z,74.0
2022-10-08T01:55:45.057Z,74.0
2022-10-08T01:58:15.661Z,74.0
2022-10-08T02:00:46.347Z,74.0
2022-10-08T02:03:17.013Z,74.0
2022-10-08T02:05:47.596Z,74.0
2022-10-08T02:08:18.172Z,74.0
2022-10-08T02:10:58.792Z,74.0
2022-10-08T02:13:29.362Z,74.0
2022-10-08T02:15:59.935Z,74.0
2022-10-08T02:18:30.546Z,74.0
2022-10-08T02:21:01.132Z,74.0
2022-10-08T02:26:11.874Z,74.0
2022-10-08T02:28:42.619Z,74.0
2022-10-08T02:31:13.266Z,74.0
2022-10-08T02:33:43.981Z,74.0
2022-10-08T02:36:14.568Z,74.0
2022-10-08T02:38:45.168Z,74.0
2022-10-08T02:41:25.739Z,74.0
2022-10-08T02:43:56.338Z,74.0
2022-10-08T02:46:26.979Z,74.0
2022-10-08T02:48:57.569Z,74.0
2022-10-08T02:51:28.146Z,74.0
2022-10-08T02:54:08.732Z,74.0
2022-10-08T02:56:39.300Z,74.0
2022-10-08T02:59:09.914Z,74.0
2022-10-08T03:01:40.737Z,74.0
2022-10-08T03:06:41.579Z,74.0
2022-10-08T03:09:22.206Z,74.0
2022-10-08T03:11:52.799Z,74.0
2022-10-08T03:14:23.389Z,74.0
2022-10-08T03:16:54.145Z,74.0
2022-10-08T03:19:24.850Z,74.0
2022-10-08T03:21:55.455Z,74.0
2022-10-08T03:24:36.079Z,74.0
2022-10-08T03:27:06.737Z,74.0
2022-10-08T03:29:37.338Z,74.0
2022-10-08T03:32:07.931Z,74.0
2022-10-08T03:34:38.544Z,74.0
2022-10-08T03:37:09.135Z,74.0
2022-10-08T03:39:49.728Z,74.0
2022-10-08T03:42:20.303Z,74.0
2022-10-08T03:47:21.056Z,74.0
2022-10-08T03:49:51.658Z,74.0
2022-10-08T03:52:32.241Z,74.0
2022-10-08T03:55:12.845Z,74.0
2022-10-08T03:57:43.467Z,74.0
2022-10-08T04:00:14.085Z,74.0
2022-10-08T04:02:44.916Z,74.0
2022-10-08T04:05:15.881Z,74.0
2022-10-08T04:07:56.484Z,74.0
2022-10-08T04:10:27.069Z,74.0
2022-10-08T04:12:57.936Z,74.0
2022-10-08T04:15:28.573Z,74.0
2022-10-08T04:17:59.341Z,74.0
2022-10-08T04:20:29.940Z,74.0
2022-10-08T04:23:10.551Z,74.0
2022-10-08T04:28:11.446Z,74.0
2022-10-08T04:30:42.193Z,74.0
2022-10-08T04:33:12.911Z,74.0
2022-10-08T04:35:43.513Z,74.0
2022-10-08T04:38:20.166Z,74.0
2022-10-08T04:40:50.741Z,74.0
2022-10-08T04:43:21.339Z,74.0
2022-10-08T04:45:51.970Z,74.0
2022-10-08T04:48:22.662Z,74.0
2022-10-08T04:50:53.220Z,74.0
2022-10-08T04:53:38.531Z,74.0
2022-10-08T04:56:09.130Z,74.0
2022-10-08T04:58:39.755Z,74.0
2022-10-08T05:01:10.426Z,74.0
2022-10-08T05:03:41.135Z,74.0
2022-10-08T05:08:51.871Z,74.0
2022-10-08T05:11:22.490Z,74.0
2022-10-08T05:13:53.097Z,74.0
2022-10-08T05:16:23.919Z,75.0
2022-10-08T05:18:54.558Z,74.0
2022-10-08T05:21:35.147Z,74.0
2022-10-08T05:24:05.844Z,74.0
2022-10-08T05:26:58.732Z,75.0
2022-10-08T05:29:09.664Z,74.0
2022-10-08T05:31:40.356Z,75.0
2022-10-08T05:34:10.976Z,75.0
2022-10-08T05:36:51.589Z,75.0
2022-10-08T05:39:22.193Z,75.0
2022-10-08T05:41:52.758Z,74.0
2022-10-08T05:44:23.346Z,75.0
2022-10-08T05:49:18.130Z,75.0
2022-10-08T05:51:58.683Z,75.0
2022-10-08T05:54:29.284Z,75.0
2022-10-08T05:57:09.902Z,75.0
2022-10-08T05:59:40.528Z,75.0
2022-10-08T06:02:11.086Z,74.0
2022-10-08T06:04:51.851Z,75.0
2022-10-08T06:07:22.625Z,74.0
2022-10-08T06:09:53.226Z,75.0
2022-10-08T06:12:23.851Z,74.0
2022-10-08T06:14:54.447Z,75.0
2022-10-08T06:17:25.037Z,75.0
2022-10-08T06:20:05.645Z,74.0
2022-10-08T06:22:36.245Z,74.0
2022-10-08T06:25:07.166Z,74.0
2022-10-08T06:30:07.855Z,74.0
2022-10-08T06:32:38.428Z,74.0
2022-10-08T06:35:19.808Z,74.0
2022-10-08T06:37:50.387Z,74.0
2022-10-08T06:40:20.961Z,74.0
2022-10-08T06:45:21.723Z,74.0
2022-10-08T06:47:52.350Z,74.0
2022-10-08T06:50:32.954Z,74.0
2022-10-08T06:53:03.530Z,74.0
2022-10-08T06:55:34.134Z,74.0
2022-10-08T06:58:04.734Z,74.0
2022-10-08T07:00:35.396Z,74.0
2022-10-08T07:03:16.072Z,74.0
2022-10-08T07:05:46.669Z,74.0
2022-10-08T07:10:47.409Z,74.0
2022-10-08T07:13:17.998Z,74.0
2022-10-08T07:15:48.593Z,74.0
2022-10-08T07:18:29.250Z,74.0
2022-10-08T07:20:59.852Z,74.0
2022-10-08T07:23:30.457Z,74.0
2022-10-08T07:26:01.026Z,74.0
2022-10-08T07:31:01.775Z,74.0
2022-10-08T07:33:42.430Z,74.0
2022-10-08T07:36:13.009Z,74.0
2022-10-08T07:38:43.605Z,74.0
2022-10-08T07:41:14.188Z,74.0
2022-10-08T07:43:44.825Z,74.0
2022-10-08T07:46:25.510Z,74.0
2022-10-08T07:51:26.266Z,74.0
2022-10-08T07:54:00.180Z,74.0
2022-10-08T07:56:32.689Z,74.0
2022-10-08T07:59:03.302Z,74.0
2022-10-08T08:01:43.998Z,74.0
2022-10-08T08:04:14.731Z,74.0
2022-10-08T08:06:45.370Z,74.0
2022-10-08T08:09:15.963Z,74.0
2022-10-08T08:11:46.596Z,74.0
2022-10-08T08:14:17.200Z,74.0
2022-10-08T08:16:58.006Z,74.0
2022-10-08T08:19:28.640Z,73.0
2022-10-08T08:21:59.247Z,73.0
2022-10-08T08:24:29.848Z,73.0
2022-10-08T08:27:01.671Z,73.0
2022-10-08T08:32:12.646Z,73.0
2022-10-08T08:34:38.845Z,73.0
2022-10-08T08:37:09.442Z,73.0
2022-10-08T08:39:40.083Z,73.0
2022-10-08T08:42:10.650Z,73.0
2022-10-08T08:44:41.244Z,73.0
2022-10-08T08:47:21.861Z,73.0
2022-10-08T08:49:52.503Z,73.0
2022-10-08T08:52:33.083Z,73.0
2022-10-08T08:55:03.674Z,73.0
2022-10-08T08:57:34.276Z,73.0
2022-10-08T09:00:04.904Z,73.0
2022-10-08T09:02:45.718Z,73.0
2022-10-08T09:05:16.632Z,73.0
2022-10-08T09:07:47.353Z,73.0
2022-10-08T09:12:48.269Z,72.0
2022-10-08T09:15:29.045Z,72.0
2022-10-08T09:17:59.626Z,72.0
2022-10-08T09:20:30.222Z,72.0
2022-10-08T09:23:01.029Z,72.0
2022-10-08T09:25:31.623Z,72.0
2022-10-08T09:28:02.188Z,72.0
2022-10-08T09:30:43.142Z,71.0
2022-10-08T09:33:10.614Z,71.0
2022-10-08T09:35:41.215Z,71.0
2022-10-08T09:38:16.075Z,71.0
2022-10-08T09:40:46.679Z,71.0
2022-10-08T09:43:17.275Z,70.0
2022-10-08T09:45:58.105Z,70.0
2022-10-08T09:48:28.801Z,70.0
2022-10-08T09:53:29.512Z,70.0
2022-10-08T09:56:00.110Z,69.0
2022-10-08T09:58:30.749Z,69.0
2022-10-08T10:01:11.393Z,68.0
2022-10-08T10:03:42.222Z,68.0
2022-10-08T10:06:12.943Z,68.0
2022-10-08T10:08:43.571Z,68.0
2022-10-08T10:11:14.186Z,68.0
2022-10-08T10:13:54.796Z,67.0
2022-10-08T10:16:25.434Z,67.0
2022-10-08T10:18:56.090Z,67.0
2022-10-08T10:21:26.679Z,67.0
2022-10-08T10:23:57.333Z,66.0
2022-10-08T10:26:27.928Z,66.0
2022-10-08T10:29:08.545Z,65.0
2022-10-08T10:34:09.272Z,65.0
2022-10-08T10:36:39.857Z,65.0
2022-10-08T10:39:10.432Z,65.0
2022-10-08T10:41:40.996Z,65.0
2022-10-08T10:44:21.629Z,65.0
2022-10-08T10:46:52.234Z,65.0
2022-10-08T10:49:22.852Z,65.0
2022-10-08T10:51:53.414Z,65.0
2022-10-08T10:54:24.010Z,65.0
2022-10-08T10:56:54.606Z,65.0
2022-10-08T10:59:35.223Z,65.0
2022-10-08T11:02:05.892Z,65.0
2022-10-08T11:04:36.515Z,65.0
2022-10-08T11:07:07.202Z,64.0
2022-10-08T11:09:37.821Z,64.0
2022-10-08T11:14:48.589Z,64.0
2022-10-08T11:19:49.299Z,63.0
2022-10-08T11:22:19.905Z,63.0
2022-10-08T11:24:50.522Z,63.0
2022-10-08T11:27:31.115Z,63.0
2022-10-08T11:30:01.849Z,63.0
2022-10-08T11:32:32.447Z,63.0
2022-10-08T11:35:03.054Z,63.0
2022-10-08T11:37:33.644Z,63.0
2022-10-08T11:40:04.245Z,63.0
2022-10-08T11:42:51.068Z,63.0
2022-10-08T11:45:21.849Z,63.0
2022-10-08T11:47:52.447Z,62.0
2022-10-08T11:50:26.925Z,62.0
2022-10-08T11:55:27.626Z,62.0
2022-10-08T11:58:18.226Z,62.0
2022-10-08T12:00:38.811Z,62.0
2022-10-08T12:03:09.709Z,62.0
2022-10-08T12:05:40.582Z,62.0
2022-10-08T12:08:11.151Z,61.0
2022-10-08T12:10:41.815Z,61.0
2022-10-08T12:13:27.803Z,61.0
2022-10-08T12:15:48.477Z,61.0
2022-10-08T12:18:22.450Z,61.0
2022-10-08T12:20:54.307Z,61.0
2022-10-08T12:23:24.889Z,61.0
2022-10-08T12:26:05.490Z,62.0
2022-10-08T12:28:36.148Z,61.0
2022-10-08T12:31:07.035Z,61.0
2022-10-08T12:36:07.940Z,61.0
2022-10-08T12:38:38.544Z,61.0
2022-10-08T12:41:19.132Z,61.0
2022-10-08T12:43:49.744Z,61.0
2022-10-08T12:46:20.451Z,61.0
2022-10-08T12:48:51.193Z,61.0
2022-10-08T12:51:21.765Z,61.0
2022-10-08T12:53:52.369Z,61.0
2022-10-08T12:56:32.943Z,61.0
2022-10-08T12:59:03.563Z,61.0
2022-10-08T13:01:34.332Z,62.0
2022-10-08T13:04:05.025Z,61.0
2022-10-08T13:06:37.726Z,61.0
2022-10-08T13:09:08.341Z,61.0
2022-10-08T13:11:53.776Z,61.0
2022-10-08T13:16:46.168Z,61.0
2022-10-08T13:19:16.799Z,61.0
2022-10-08T13:21:47.398Z,61.0
2022-10-08T13:24:17.990Z,61.0
2022-10-08T13:26:58.582Z,61.0
2022-10-08T13:29:29.379Z,61.0
2022-10-08T13:32:00.098Z,60.0
2022-10-08T13:34:30.701Z,61.0
2022-10-08T13:37:01.285Z,61.0
2022-10-08T13:39:41.894Z,61.0
2022-10-08T13:42:12.464Z,61.0
2022-10-08T13:44:43.067Z,61.0
2022-10-08T13:47:14.310Z,61.0
2022-10-08T13:49:44.932Z,61.0
2022-10-08T13:52:15.509Z,61.0
2022-10-08T13:57:26.264Z,61.0
2022-10-08T13:59:56.891Z,61.0
2022-10-08T14:02:37.554Z,61.0
2022-10-08T14:05:08.128Z,61.0
2022-10-08T14:07:38.759Z,61.0
2022-10-08T14:10:10.051Z,62.0
2022-10-08T14:12:40.641Z,62.0
2022-10-08T14:15:21.272Z,62.0
2022-10-08T14:17:51.864Z,62.0
2022-10-08T14:20:22.451Z,62.0
2022-10-08T14:22:53.022Z,62.0
2022-10-08T14:25:33.692Z,62.0
2022-10-08T14:28:04.321Z,62.0
2022-10-08T14:30:35.029Z,62.0
2022-10-08T14:33:09.050Z,62.0
2022-10-08T14:38:11.067Z,61.0
2022-10-08T14:40:41.662Z,60.0
2022-10-08T14:43:12.251Z,61.0
2022-10-08T14:45:43.020Z,61.0
2022-10-08T14:48:13.706Z,60.0
2022-10-08T14:50:44.287Z,60.0
2022-10-08T14:53:24.896Z,60.0
2022-10-08T14:56:21.256Z,60.0
2022-10-08T14:58:31.827Z,60.0
2022-10-08T15:01:02.399Z,59.0
2022-10-08T15:03:33.076Z,60.0
2022-10-08T15:06:03.758Z,60.0
2022-10-08T15:08:44.361Z,60.0
2022-10-08T15:11:14.954Z,60.0
2022-10-08T15:13:45.549Z,60.0
2022-10-08T15:18:46.306Z,61.0
2022-10-08T15:21:16.880Z,61.0
2022-10-08T15:23:57.492Z,61.0
2022-10-08T15:26:28.074Z,61.0
2022-10-08T15:28:58.800Z,61.0
2022-10-08T15:31:29.495Z,61.0
2022-10-08T15:34:00.274Z,62.0
2022-10-08T15:36:30.879Z,62.0
2022-10-08T15:39:11.480Z,62.0
2022-10-08T15:41:42.095Z,62.0
2022-10-08T15:44:12.714Z,62.0
2022-10-08T15:46:43.318Z,62.0
2022-10-08T15:49:18.816Z,63.0
2022-10-08T15:51:59.434Z,62.0
2022-10-08T15:54:30.018Z,62.0
2022-10-08T15:59:30.776Z,63.0
2022-10-08T16:02:01.457Z,63.0
2022-10-08T16:04:27.082Z,63.0
2022-10-08T16:07:07.651Z,63.0
2022-10-08T16:09:38.240Z,63.0
2022-10-08T16:12:08.841Z,63.0
2022-10-08T16:14:39.466Z,63.0
2022-10-08T16:17:10.141Z,63.0
2022-10-08T16:19:40.766Z,63.0
2022-10-08T16:22:21.361Z,64.0
2022-10-08T16:24:51.988Z,64.0
2022-10-08T16:27:22.566Z,64.0
2022-10-08T16:29:53.171Z,64.0
2022-10-08T16:32:23.744Z,65.0
2022-10-08T16:34:55.496Z,65.0
2022-10-08T16:40:06.219Z,66.0
2022-10-08T16:42:36.801Z,66.0
2022-10-08T16:45:07.817Z,66.0
2022-10-08T16:47:38.406Z,66.0
2022-10-08T16:50:19.006Z,66.0
2022-10-08T16:52:49.819Z,66.0
2022-10-08T16:55:20.543Z,66.0
2022-10-08T16:57:51.690Z,66.0
2022-10-08T17:00:22.410Z,66.0
2022-10-08T17:02:53.112Z,66.0
2022-10-08T17:05:33.909Z,67.0
2022-10-08T17:08:04.478Z,67.0
2022-10-08T17:10:35.090Z,67.0
2022-10-08T17:13:05.701Z,68.0
2022-10-08T17:15:36.297Z,67.0
2022-10-08T17:20:57.058Z,68.0
2022-10-08T17:23:27.653Z,68.0
2022-10-08T17:25:58.273Z,68.0
2022-10-08T17:28:29.026Z,68.0
2022-10-08T17:30:59.835Z,68.0
2022-10-08T17:33:34.709Z,68.0
2022-10-08T17:36:06.125Z,69.0
2022-10-08T17:38:36.745Z,69.0
2022-10-08T17:41:07.321Z,69.0
2022-10-08T17:43:37.899Z,69.0
2022-10-08T17:46:08.559Z,69.0
2022-10-08T17:48:39.265Z,69.0
2022-10-08T17:51:19.867Z,69.0
2022-10-08T17:53:50.517Z,69.0
2022-10-08T17:56:21.121Z,69.0
2022-10-08T18:01:22.076Z,69.0
2022-10-08T18:03:52.922Z,69.0
2022-10-08T18:06:33.509Z,69.0
2022-10-08T18:09:04.101Z,69.0
2022-10-08T18:11:34.693Z,69.0
2022-10-08T18:14:05.315Z,69.0
2022-10-08T18:16:35.893Z,69.0
2022-10-08T18:19:19.342Z,69.0
2022-10-08T18:21:49.940Z,69.0
2022-10-08T18:24:20.553Z,69.0
2022-10-08T18:26:51.133Z,68.0
2022-10-08T18:29:21.791Z,68.0
2022-10-08T18:31:52.389Z,68.0
2022-10-08T18:34:32.988Z,68.0
2022-10-08T18:37:03.581Z,67.0
2022-10-08T18:42:04.288Z,67.0
2022-10-08T18:44:34.878Z,67.0
2022-10-08T18:47:05.753Z,67.0
2022-10-08T18:49:46.369Z,67.0
2022-10-08T18:52:21.332Z,67.0
2022-10-08T18:54:52.077Z,67.0
2022-10-08T18:57:22.647Z,67.0
2022-10-08T18:59:53.277Z,67.0
2022-10-08T19:02:24.223Z,67.0
2022-10-08T19:05:05.050Z,67.0
2022-10-08T19:07:35.655Z,67.0
2022-10-08T19:10:06.268Z,67.0
2022-10-08T19:12:36.880Z,67.0
2022-10-08T19:15:07.824Z,67.0
2022-10-08T19:17:48.418Z,67.0
2022-10-08T19:22:49.611Z,67.0
2022-10-08T19:25:20.453Z,67.0
2022-10-08T19:27:51.051Z,68.0
2022-10-08T19:30:25.367Z,68.0
2022-10-08T19:33:07.112Z,68.0
2022-10-08T19:35:37.716Z,68.0
2022-10-08T19:38:08.317Z,69.0
2022-10-08T19:40:38.933Z,69.0
2022-10-08T19:43:09.508Z,69.0
2022-10-08T19:45:40.114Z,69.0
2022-10-08T19:48:21.579Z,69.0
2022-10-08T19:50:52.172Z,69.0
2022-10-08T19:53:22.771Z,69.0
2022-10-08T19:55:53.369Z,69.0
2022-10-08T19:58:23.968Z,69.0
2022-10-08T20:03:34.694Z,69.0
2022-10-08T20:06:05.267Z,70.0
2022-10-08T20:08:29.644Z,70.0
2022-10-08T20:11:00.226Z,70.0
2022-10-08T20:13:30.835Z,70.0
2022-10-08T20:16:11.603Z,70.0
2022-10-08T20:21:22.500Z,70.0
2022-10-08T20:23:53.121Z,70.0
2022-10-08T20:26:23.718Z,70.0
2022-10-08T20:28:54.448Z,70.0
2022-10-08T20:31:35.196Z,70.0
2022-10-08T20:34:05.879Z,70.0
2022-10-08T20:36:36.479Z,70.0
2022-10-08T20:39:07.096Z,70.0
2022-10-08T20:44:07.833Z,70.0
2022-10-08T20:46:48.582Z,69.0
2022-10-08T20:49:19.322Z,69.0
2022-10-08T20:51:49.916Z,69.0
2022-10-08T20:54:20.524Z,69.0
2022-10-08T20:56:51.111Z,69.0
2022-10-08T20:59:21.729Z,69.0
2022-10-08T21:02:02.713Z,69.0
2022-10-08T21:04:26.892Z,69.0
2022-10-08T21:06:57.483Z,69.0
2022-10-08T21:09:28.085Z,68.0
2022-10-08T21:11:58.686Z,68.0
2022-10-08T21:14:39.295Z,68.0
2022-10-08T21:17:09.868Z,68.0
2022-10-08T21:19:40.441Z,68.0
2022-10-08T21:24:51.177Z,68.0
2022-10-08T21:27:21.794Z,68.0
2022-10-08T21:30:02.385Z,68.0
2022-10-08T21:32:32.946Z,68.0
2022-10-08T21:35:03.569Z,68.0
2022-10-08T21:37:34.178Z,68.0
2022-10-08T21:40:04.766Z,68.0
2022-10-08T21:42:35.359Z,68.0
2022-10-08T21:45:16.436Z,68.0
2022-10-08T21:47:47.101Z,68.0
2022-10-08T21:50:17.713Z,68.0
2022-10-08T21:52:48.518Z,68.0
2022-10-08T21:55:19.280Z,68.0
2022-10-08T21:57:49.848Z,69.0
2022-10-08T22:00:30.532Z,69.0
2022-10-08T22:05:31.371Z,69.0
2022-10-08T22:08:01.948Z,69.0
2022-10-08T22:10:32.534Z,69.0
2022-10-08T22:13:13.139Z,69.0
2022-10-08T22:15:43.754Z,69.0
2022-10-08T22:18:14.467Z,69.0
2022-10-08T22:20:45.061Z,69.0
2022-10-08T22:23:15.666Z,69.0
2022-10-08T22:25:46.280Z,70.0
2022-10-08T22:28:26.992Z,70.0
2022-10-08T22:30:57.678Z,70.0
2022-10-08T22:33:28.279Z,70.0
2022-10-08T22:35:58.857Z,70.0
2022-10-08T22:38:29.445Z,70.0
2022-10-08T22:41:00.026Z,70.0
2022-10-08T22:46:10.882Z,70.0
2022-10-08T22:48:41.525Z,70.0
2022-10-08T22:51:12.105Z,70.0
2022-10-08T22:53:42.688Z,70.0
2022-10-08T22:56:13.253Z,70.0
2022-10-08T22:58:53.871Z,70.0
2022-10-08T23:01:24.475Z,70.0
2022-10-08T23:03:55.145Z,71.0
2022-10-08T23:06:25.717Z,71.0
2022-10-08T23:08:56.325Z,71.0
2022-10-08T23:11:26.971Z,71.0
2022-10-08T23:14:07.644Z,71.0
2022-10-08T23:16:38.337Z,71.0
2022-10-08T23:19:09.124Z,71.0
2022-10-08T23:21:41.656Z,71.0
2022-10-08T23:26:54.199Z,71.0
2022-10-08T23:29:29.289Z,71.0
2022-10-08T23:32:00.126Z,71.0
2022-10-08T23:34:30.939Z,71.0
2022-10-08T23:37:01.514Z,71.0
2022-10-08T23:39:32.111Z,71.0
2022-10-08T23:42:12.702Z,71.0
2022-10-08T23:44:43.323Z,71.0
2022-10-08T23:47:13.925Z,71.0
2022-10-08T23:49:44.530Z,71.0
2022-10-08T23:52:15.114Z,71.0
2022-10-08T23:54:46.049Z,71.0
2022-10-08T23:57:26.654Z,71.0
2022-10-08T23:59:57.260Z,71.0
